Time;durP1;ratioP1;P1;durP2;ratioP2;P2;SDS_P1;SDS_P2;PMS_P1;PMS_P2;Temp;Humidity;BMP_temperature;BMP_pressure;BME280_temperature;BME280_humidity;BME280_pressure;Samples;Min_cycle;Max_cycle;Signal;HPM_P1;HPM_P2
2021/04/01 00:01:43;;;;;;;21.42;12.20;;;;;;;9.17;45.96;100524.19;5050351;28;20048;-22
2021/04/01 00:04:09;;;;;;;16.27;9.43;;;;;;;9.14;46.01;100517.44;5050450;28;20033;-22
2021/04/01 00:06:34;;;;;;;23.05;11.57;;;;;;;9.14;46.56;100529.94;5050500;28;20029;-22
2021/04/01 00:09:00;;;;;;;15.35;8.63;;;;;;;8.86;46.98;100522.81;5032684;28;20041;-23
2021/04/01 00:11:25;;;;;;;11.70;7.90;;;;;;;8.84;47.25;100533.66;5050207;28;20029;-22
2021/04/01 00:13:51;;;;;;;24.42;14.38;;;;;;;8.80;46.01;100528.91;5032482;28;20036;-22
2021/04/01 00:16:19;;;;;;;17.55;11.40;;;;;;;8.93;45.14;100523.69;5050198;28;20493;-21
2021/04/01 00:18:45;;;;;;;16.02;10.88;;;;;;;8.85;45.25;100531.81;5050226;28;20069;-21
2021/04/01 00:21:10;;;;;;;13.15;8.07;;;;;;;8.86;46.06;100509.53;5050323;28;20029;-27
2021/04/01 00:23:36;;;;;;;11.98;8.32;;;;;;;9.21;45.77;100531.59;5050402;28;20043;-23
2021/04/01 00:26:01;;;;;;;12.30;8.05;;;;;;;9.07;46.44;100513.91;5049909;28;20078;-23
2021/04/01 00:28:27;;;;;;;12.40;7.55;;;;;;;9.75;45.36;100526.44;5049763;28;20025;-22
2021/04/01 00:30:52;;;;;;;11.00;7.75;;;;;;;9.87;44.68;100503.50;5049755;28;20074;-21
2021/04/01 00:33:17;;;;;;;11.30;7.90;;;;;;;9.92;45.27;100509.03;5050081;28;20032;-20
2021/04/01 00:35:43;;;;;;;11.55;7.68;;;;;;;9.27;46.98;100513.19;5050007;28;20032;-22
2021/04/01 00:38:08;;;;;;;14.02;8.52;;;;;;;9.80;46.14;100505.31;5049418;28;20055;-22
2021/04/01 00:40:34;;;;;;;20.05;10.90;;;;;;;9.56;47.08;100502.22;5031979;28;20029;-22
2021/04/01 00:42:59;;;;;;;13.07;9.02;;;;;;;9.20;48.32;100500.69;5032249;28;20481;-22
2021/04/01 00:45:25;;;;;;;12.38;8.40;;;;;;;9.36;47.96;100512.81;5031736;28;20091;-22
2021/04/01 00:47:52;;;;;;;12.60;8.00;;;;;;;9.55;48.19;100505.09;5049527;28;20025;-22
2021/04/01 00:50:21;;;;;;;11.18;7.95;;;;;;;9.13;48.65;100497.16;5031337;28;20049;-23
2021/04/01 00:52:47;;;;;;;11.02;7.43;;;;;;;9.17;48.28;100482.44;5031903;28;20098;-22
2021/04/01 00:55:12;;;;;;;12.02;7.28;;;;;;;9.62;47.79;100488.09;5049733;28;20469;-22
2021/04/01 00:57:40;;;;;;;10.98;7.47;;;;;;;9.09;48.87;100477.28;5031586;28;20025;-21
2021/04/01 01:00:08;;;;;;;9.60;7.05;;;;;;;9.25;48.80;100468.13;5031672;28;20029;-22
2021/04/01 01:02:33;;;;;;;10.18;7.03;;;;;;;9.50;47.85;100473.75;5049319;28;20025;-22
2021/04/01 01:04:59;;;;;;;11.30;7.28;;;;;;;9.29;47.53;100455.25;5030600;28;20044;-22
2021/04/01 01:07:24;;;;;;;11.20;7.47;;;;;;;9.72;46.86;100468.25;5031090;28;20716;-21
2021/04/01 01:09:50;;;;;;;10.85;7.07;;;;;;;9.99;45.62;100467.25;5049318;28;20036;-21
2021/04/01 01:12:15;;;;;;;10.55;7.28;;;;;;;9.72;46.89;100461.06;5049261;28;20037;-21
2021/04/01 01:14:41;;;;;;;11.30;8.02;;;;;;;9.69;46.30;100455.34;5049125;28;20440;-22
2021/04/01 01:17:06;;;;;;;12.90;7.97;;;;;;;9.17;47.77;100439.84;5031225;28;20090;-22
2021/04/01 01:19:38;;;;;;;13.70;8.10;;;;;;;9.29;48.12;100444.59;5049179;28;20548;-22
2021/04/01 01:22:05;;;;;;;10.70;7.50;;;;;;;9.64;47.54;100438.13;5049223;28;20029;-22
2021/04/01 01:24:31;;;;;;;10.07;7.40;;;;;;;9.55;46.96;100434.00;5031610;28;20048;-23
2021/04/01 01:26:56;;;;;;;11.70;7.72;;;;;;;9.82;47.13;100458.81;5014379;28;20119;-22
2021/04/01 01:29:21;;;;;;;13.32;8.10;;;;;;;9.70;46.45;100439.13;5014976;28;20381;-22
2021/04/01 01:31:49;;;;;;;10.32;7.57;;;;;;;9.89;46.08;100440.19;5031011;28;20025;-22
2021/04/01 01:34:16;;;;;;;10.93;7.65;;;;;;;9.59;47.10;100424.59;5048436;28;20033;-22
2021/04/01 01:36:41;;;;;;;11.82;7.80;;;;;;;9.42;47.46;100418.03;5048706;28;20039;-22
2021/04/01 01:39:07;;;;;;;14.43;7.95;;;;;;;9.71;47.23;100424.00;5048617;28;20041;-21
2021/04/01 01:41:32;;;;;;;11.57;7.85;;;;;;;9.70;46.75;100406.38;5048726;28;20032;-21
2021/04/01 01:43:58;;;;;;;12.27;8.10;;;;;;;9.64;46.13;100398.19;5030833;28;20094;-22
2021/04/01 01:46:23;;;;;;;11.90;8.00;;;;;;;9.03;48.75;100411.56;5048316;28;20028;-22
2021/04/01 01:48:49;;;;;;;11.27;7.45;;;;;;;9.19;47.79;100416.56;5048230;28;20531;-22
2021/04/01 01:51:14;;;;;;;12.07;7.45;;;;;;;9.13;48.92;100413.84;5048268;28;20037;-22
2021/04/01 01:53:40;;;;;;;9.75;7.30;;;;;;;9.25;47.96;100397.13;5048497;28;20040;-22
2021/04/01 01:56:05;;;;;;;12.32;8.68;;;;;;;8.97;49.56;100391.09;5048596;28;20032;-23
2021/04/01 01:58:31;;;;;;;11.45;7.78;;;;;;;9.07;49.43;100407.50;5048159;28;20036;-23
2021/04/01 02:00:57;;;;;;;12.10;7.85;;;;;;;9.49;49.13;100418.03;5048138;28;20025;-21
2021/04/01 02:03:26;;;;;;;12.18;8.38;;;;;;;9.10;48.27;100401.78;5030478;28;20032;-21
2021/04/01 02:05:52;;;;;;;10.40;8.02;;;;;;;8.97;50.07;100413.22;5048196;28;20044;-23
2021/04/01 02:08:17;;;;;;;13.73;8.10;;;;;;;8.92;49.83;100409.50;5048044;28;20108;-21
2021/04/01 02:10:50;;;;;;;12.30;8.60;;;;;;;8.65;50.18;100404.09;5048246;28;20132;-22
2021/04/01 02:13:19;;;;;;;12.32;8.18;;;;;;;8.68;50.65;100408.19;5048160;28;20035;-22
2021/04/01 02:15:46;;;;;;;12.52;8.07;;;;;;;8.74;50.25;100408.19;5047927;28;20029;-23
2021/04/01 02:18:20;;;;;;;13.20;8.43;;;;;;;8.59;50.33;100399.56;5047476;28;20059;-22
2021/04/01 02:20:47;;;;;;;12.95;8.23;;;;;;;8.55;50.70;100408.94;5048325;28;20033;-21
2021/04/01 02:23:14;;;;;;;14.30;8.73;;;;;;;8.54;51.21;100407.28;5047737;28;20032;-22
2021/04/01 02:25:41;;;;;;;11.80;8.10;;;;;;;8.35;51.01;100404.28;5048067;28;20025;-21
2021/04/01 02:28:06;;;;;;;12.88;8.63;;;;;;;8.50;50.43;100400.72;5047643;28;20025;-19
2021/04/01 02:30:33;;;;;;;13.07;8.57;;;;;;;8.60;49.07;100390.53;5048120;28;20087;-22
2021/04/01 02:32:59;;;;;;;13.65;8.40;;;;;;;8.52;48.53;100366.78;4997361;28;20055;-23
2021/04/01 02:35:24;;;;;;;12.35;8.90;;;;;;;8.21;49.27;100376.00;5047789;28;20033;-24
2021/04/01 02:37:50;;;;;;;12.35;8.35;;;;;;;8.38;49.27;100392.47;5029564;28;20039;-23
2021/04/01 02:40:15;;;;;;;15.23;8.60;;;;;;;8.06;49.45;100373.47;5047533;28;20071;-22
2021/04/01 02:42:41;;;;;;;13.95;9.18;;;;;;;8.31;49.71;100386.28;5047473;28;20025;-22
2021/04/01 02:45:08;;;;;;;13.98;9.30;;;;;;;8.00;50.12;100396.31;5029777;28;20123;-22
2021/04/01 02:47:34;;;;;;;14.63;9.48;;;;;;;8.00;50.55;100366.28;5047257;28;20028;-22
2021/04/01 02:49:59;;;;;;;12.95;9.13;;;;;;;8.10;50.24;100365.94;5047131;28;20053;-22
2021/04/01 02:52:25;;;;;;;13.25;9.57;;;;;;;7.33;52.14;100372.91;5047009;28;20463;-22
2021/04/01 02:54:51;;;;;;;15.10;9.65;;;;;;;7.35;52.13;100376.19;5029971;28;20484;-21
2021/04/01 02:57:17;;;;;;;14.43;9.52;;;;;;;7.05;52.88;100371.00;5047572;28;20028;-21
2021/04/01 02:59:47;;;;;;;14.18;9.00;;;;;;;7.19;52.49;100372.78;5013338;28;20062;-22
2021/04/01 03:02:14;;;;;;;12.75;9.05;;;;;;;7.10;53.00;100373.91;5047124;28;20538;-22
2021/04/01 03:04:40;;;;;;;15.48;8.48;;;;;;;7.24;52.82;100375.69;5047160;28;20028;-22
2021/04/01 03:07:05;;;;;;;13.75;9.20;;;;;;;7.10;53.62;100368.59;5012940;28;20028;-20
2021/04/01 03:09:31;;;;;;;15.20;8.63;;;;;;;7.04;52.73;100358.75;5029634;28;20032;-22
2021/04/01 03:11:57;;;;;;;13.85;9.27;;;;;;;6.99;54.29;100364.63;5047266;28;20025;-22
2021/04/01 03:14:22;;;;;;;13.18;9.02;;;;;;;7.05;53.71;100365.72;5046760;28;20036;-22
2021/04/01 03:16:48;;;;;;;12.13;8.43;;;;;;;6.71;54.24;100358.38;5029372;28;20044;-22
2021/04/01 03:19:13;;;;;;;14.70;8.52;;;;;;;6.77;54.28;100353.16;5046948;28;20484;-22
2021/04/01 03:21:39;;;;;;;12.75;7.38;;;;;;;6.58;54.35;100353.78;5029167;28;20058;-20
2021/04/01 03:24:05;;;;;;;13.25;8.23;;;;;;;6.49;55.17;100354.84;5029360;28;20331;-21
2021/04/01 03:26:30;;;;;;;15.38;9.05;;;;;;;6.56;54.19;100358.41;5046798;28;20029;-22
2021/04/01 03:28:56;;;;;;;15.57;9.80;;;;;;;6.57;54.33;100358.22;5030315;28;20036;-23
2021/04/01 03:31:22;;;;;;;11.63;7.85;;;;;;;6.52;54.32;100338.56;5051188;28;20102;-22
2021/04/01 03:33:48;;;;;;;21.40;8.63;;;;;;;6.51;54.63;100344.91;5050976;28;20044;-22
2021/04/01 03:36:13;;;;;;;14.15;8.65;;;;;;;6.52;55.35;100350.03;5050810;28;20036;-22
2021/04/01 03:38:40;;;;;;;13.43;8.43;;;;;;;6.58;55.07;100361.72;5050984;28;20037;-22
2021/04/01 03:41:05;;;;;;;15.02;9.07;;;;;;;6.70;53.65;100362.03;5050965;28;20059;-22
2021/04/01 03:43:31;;;;;;;14.10;8.85;;;;;;;6.77;54.59;100366.41;5050816;28;20421;-23
2021/04/01 03:45:57;;;;;;;19.50;10.75;;;;;;;6.41;55.59;100358.44;5050729;28;20535;-21
2021/04/01 03:48:22;;;;;;;16.42;10.73;;;;;;;6.97;54.15;100357.88;5032654;28;20148;-22
2021/04/01 03:50:48;;;;;;;16.45;9.60;;;;;;;6.67;54.61;100373.84;5050616;28;20029;-22
2021/04/01 03:53:13;;;;;;;14.35;9.27;;;;;;;6.65;54.85;100378.50;5050737;28;20036;-22
2021/04/01 03:55:40;;;;;;;17.45;10.95;;;;;;;6.65;55.42;100365.25;5050710;28;20386;-22
2021/04/01 04:08:59;;;;;;;13.88;8.68;;;;;;;7.24;52.76;100369.56;5050253;28;20127;-22
2021/04/01 04:11:35;;;;;;;13.95;8.50;;;;;;;6.93;53.55;100364.56;5032500;28;20029;-22
2021/04/01 04:16:36;;;;;;;13.13;8.35;;;;;;;6.76;54.85;100356.00;5050614;28;20028;-21
2021/04/01 04:19:01;;;;;;;14.00;9.32;;;;;;;6.57;55.39;100371.47;5050327;28;20036;-22
2021/04/01 04:21:28;;;;;;;15.43;9.45;;;;;;;6.47;55.71;100372.78;5050283;28;20027;-22
2021/04/01 04:23:54;;;;;;;15.38;10.27;;;;;;;6.38;55.71;100354.31;5050104;28;20028;-23
2021/04/01 04:26:21;;;;;;;12.70;8.60;;;;;;;6.51;55.62;100358.97;5049878;28;20112;-22
2021/04/01 04:28:46;;;;;;;14.10;9.27;;;;;;;6.77;55.16;100377.03;5049905;28;20041;-23
2021/04/01 04:31:12;;;;;;;16.30;9.07;;;;;;;6.49;55.76;100352.22;5049875;28;20021;-22
2021/04/01 04:33:37;;;;;;;12.77;8.85;;;;;;;6.64;55.55;100375.03;5050083;28;20098;-22
2021/04/01 04:36:04;;;;;;;15.15;8.80;;;;;;;6.96;54.41;100372.13;5050100;28;20087;-22
2021/04/01 04:38:29;;;;;;;15.10;9.10;;;;;;;6.63;55.58;100388.47;5049577;28;20040;-22
2021/04/01 04:40:58;;;;;;;13.48;8.82;;;;;;;6.40;56.76;100357.63;5032170;28;20029;-22
2021/04/01 04:43:24;;;;;;;14.85;9.15;;;;;;;6.28;59.27;100382.91;5049786;28;20512;-22
2021/04/01 04:45:50;;;;;;;16.42;10.18;;;;;;;6.56;57.05;100393.69;5049667;28;20039;-22
2021/04/01 04:48:15;;;;;;;16.63;9.77;;;;;;;6.49;56.99;100386.66;5049246;28;20585;-22
2021/04/01 04:50:41;;;;;;;16.33;10.48;;;;;;;6.50;57.31;100394.44;5049945;28;20021;-21
2021/04/01 04:53:06;;;;;;;17.67;11.50;;;;;;;6.64;56.03;100390.13;5049600;28;20048;-22
2021/04/01 04:55:32;;;;;;;14.98;9.77;;;;;;;6.40;57.31;100392.06;5049376;28;20861;-22
2021/04/01 04:58:14;;;;;;;16.98;10.00;;;;;;;6.13;58.90;100371.50;5049490;28;20032;-23
2021/04/01 05:06:08;;;;;;;17.63;10.75;;;;;;;6.85;56.58;100405.25;5049256;28;20545;-22
2021/04/01 05:08:34;;;;;;;14.90;9.55;;;;;;;6.80;56.62;100419.06;5049316;28;20115;-22
2021/04/01 05:10:59;;;;;;;15.45;9.82;;;;;;;7.09;55.66;100417.38;5049147;28;20496;-20
2021/04/01 05:13:25;;;;;;;15.13;9.70;;;;;;;6.97;55.59;100406.41;5049508;28;20152;-23
2021/04/01 05:15:51;;;;;;;16.65;11.07;;;;;;;7.12;54.43;100403.72;5049112;28;20036;-22
2021/04/01 05:18:27;;;;;;;17.23;10.43;;;;;;;7.07;55.37;100410.59;5048811;28;20093;-23
2021/04/01 05:20:54;;;;;;;15.95;10.10;;;;;;;7.12;55.52;100434.72;5049040;28;20439;-23
2021/04/01 05:25:47;;;;;;;26.20;15.07;;;;;;;7.12;54.55;100477.97;5049121;28;20523;-23
2021/04/01 05:28:20;;;;;;;38.58;21.58;;;;;;;7.05;53.60;100485.03;5048588;28;20044;-22
2021/04/01 05:30:45;;;;;;;16.67;10.75;;;;;;;7.51;48.65;100482.06;5048815;28;20021;-22
2021/04/01 05:33:12;;;;;;;45.03;20.90;;;;;;;7.92;45.99;100494.72;5048747;28;20036;-23
2021/04/01 05:35:39;;;;;;;54.92;28.00;;;;;;;8.12;45.96;100484.25;5048960;28;20036;-22
2021/04/01 05:38:05;;;;;;;79.47;34.00;;;;;;;8.25;48.87;100494.16;5048562;28;20056;-23
2021/04/01 05:40:30;;;;;;;22.23;14.40;;;;;;;7.98;49.94;100488.66;5048534;28;20404;-23
2021/04/01 05:42:56;;;;;;;17.23;11.18;;;;;;;7.51;50.81;100492.69;5048500;28;20033;-23
2021/04/01 05:45:35;;;;;;;26.33;17.95;;;;;;;7.44;51.75;100499.78;5014137;28;20090;-23
2021/04/01 05:48:03;;;;;;;23.65;13.43;;;;;;;7.49;51.56;100507.16;5048260;28;20250;-22
2021/04/01 06:05:51;;;;;;;;;;;;;;;7.41;51.09;100531.97;5015095;28;20040;-23
2021/04/01 06:08:20;;;;;;;21.25;14.23;;;;;;;7.77;50.64;100529.31;5030028;28;20303;-23
2021/04/01 06:10:48;;;;;;;20.10;14.13;;;;;;;7.67;50.86;100525.31;5048107;28;20500;-22
2021/04/01 06:13:14;;;;;;;21.37;12.63;;;;;;;7.90;49.66;100517.97;5048070;28;20033;-22
2021/04/01 06:15:51;;;;;;;19.38;11.35;;;;;;;7.91;50.33;100503.72;5030072;28;20162;-22
2021/04/01 06:18:19;;;;;;;15.63;10.20;;;;;;;8.31;49.14;100527.94;5029835;28;20047;-22
2021/04/01 06:20:46;;;;;;;15.68;10.32;;;;;;;8.71;48.77;100530.91;5047916;28;20029;-22
2021/04/01 06:23:14;;;;;;;16.33;10.82;;;;;;;8.60;49.18;100516.34;5047863;28;20112;-22
2021/04/01 06:25:40;;;;;;;;;;;;;;;8.70;48.30;100529.25;5030802;28;20083;-23
2021/04/01 06:28:08;;;;;;;17.60;11.60;;;;;;;8.31;49.32;100522.63;5047504;28;20361;-18
2021/04/01 06:30:53;;;;;;;29.98;19.25;;;;;;;8.71;48.91;100536.25;5047736;28;20064;-20
2021/04/01 06:33:24;;;;;;;24.55;18.52;;;;;;;8.82;47.99;100538.34;5030459;28;20037;-25
2021/04/01 06:36:01;;;;;;;22.17;15.02;;;;;;;9.05;47.54;100524.78;5047519;28;20495;-24
2021/04/01 06:38:34;;;;;;;19.02;14.20;;;;;;;8.81;47.64;100531.41;5047128;28;20033;-25
2021/04/01 06:41:03;;;;;;;26.33;18.15;;;;;;;8.94;46.72;100529.81;5047727;28;20021;-24
2021/04/01 06:43:48;;;;;;;16.73;11.70;;;;;;;9.09;47.45;100533.16;5047398;28;20043;-22
2021/04/01 06:46:15;;;;;;;16.08;11.20;;;;;;;8.95;46.63;100521.66;5047238;28;20033;-22
2021/04/01 06:51:49;;;;;;;;;;;;;;;9.71;47.21;100534.00;5031757;28;20025;-21
2021/04/01 07:00:01;;;;;;;16.10;10.00;;;;;;;9.51;47.52;100509.16;4992043;28;20037;-24
2021/04/01 07:02:32;;;;;;;15.40;10.13;;;;;;;10.22;46.22;100540.63;5032385;28;20097;-23
2021/04/01 07:05:10;;;;;;;27.30;11.27;;;;;;;9.89;46.16;100528.09;5013469;28;20029;-23
2021/04/01 07:07:47;;;;;;;19.52;11.95;;;;;;;9.69;45.92;100537.91;5029734;28;20085;-23
2021/04/01 07:10:20;;;;;;;13.95;10.13;;;;;;;9.75;46.11;100548.56;5030300;28;20029;-23
2021/04/01 07:12:47;;;;;;;16.23;9.68;;;;;;;9.82;46.14;100528.06;5038817;28;20765;-22
2021/04/01 07:15:19;;;;;;;16.10;10.75;;;;;;;9.96;45.24;100547.56;5035753;28;20107;-23
2021/04/01 07:17:55;;;;;;;15.35;10.40;;;;;;;10.25;46.62;100543.69;5051468;28;20025;-23
2021/04/01 07:46:04;;;;;;;12.05;8.98;;;;;;;10.45;46.23;100549.06;5017854;28;20044;-22
2021/04/01 07:47:56;;;;;;;15.68;10.05;;;;;;;10.66;45.48;100536.50;5035792;28;20131;-23
2021/04/01 07:50:23;;;;;;;17.10;9.85;;;;;;;11.30;45.33;100534.06;5006535;28;20481;-23
2021/04/01 07:52:58;;;;;;;15.32;10.82;;;;;;;11.30;43.75;100534.06;5007126;28;20089;-23
2021/04/01 08:06:18;;;;;;;16.95;10.15;;;;;;;11.39;45.01;100527.47;5007195;28;20045;-22
2021/04/01 08:08:44;;;;;;;15.70;10.25;;;;;;;11.07;43.59;100498.03;5007120;28;20053;-23
2021/04/01 08:11:10;;;;;;;14.63;9.77;;;;;;;11.61;44.11;100510.09;5006779;28;20032;-23
2021/04/01 08:13:39;;;;;;;18.40;10.02;;;;;;;11.83;44.25;100520.44;5006912;28;20177;-23
2021/04/01 08:16:10;;;;;;;14.20;9.50;;;;;;;11.77;44.74;100519.44;4992708;28;20057;-23
2021/04/01 08:18:38;;;;;;;13.60;8.90;;;;;;;11.99;44.80;100509.25;5010619;28;20064;-22
2021/04/01 08:21:06;;;;;;;12.95;8.32;;;;;;;12.43;42.70;100515.47;5010530;28;20105;-22
2021/04/01 08:23:35;;;;;;;15.02;9.95;;;;;;;12.73;42.10;100508.56;5009375;28;20469;-22
2021/04/01 08:34:16;;;;;;;12.98;8.43;;;;;;;11.81;42.57;100509.13;5010425;28;20060;-23
2021/04/01 08:36:44;;;;;;;16.23;9.25;;;;;;;12.04;42.34;100498.72;5010285;28;20124;-23
2021/04/01 08:39:09;;;;;;;18.42;8.65;;;;;;;12.55;41.16;100498.69;5010360;28;20079;-22
2021/04/01 08:41:38;;;;;;;20.85;12.77;;;;;;;12.65;41.34;100509.72;5010235;28;20033;-22
2021/04/01 08:44:35;;;;;;;47.10;27.23;;;;;;;13.00;40.94;100511.81;5008768;28;20509;-23
2021/04/01 08:47:22;;;;;;;12.45;8.75;;;;;;;13.52;40.57;100498.78;5009876;28;20036;-23
2021/04/01 08:50:29;;;;;;;11.50;7.67;;;;;;;13.32;41.10;100476.81;5040365;28;20067;-22
2021/04/01 08:53:03;;;;;;;15.52;8.27;;;;;;;13.04;40.00;100476.31;5032161;28;20025;-22
2021/04/01 08:56:24;;;;;;;12.25;8.50;;;;;;;13.31;41.38;100484.03;5031711;28;20104;-22
2021/04/01 08:59:01;;;;;;;16.02;8.35;;;;;;;13.10;41.09;100489.81;5016982;28;20070;-22
2021/04/01 09:01:32;;;;;;;13.70;7.97;;;;;;;13.25;39.74;100471.53;5049548;28;20111;-22
2021/04/01 09:03:58;;;;;;;13.32;8.65;;;;;;;13.76;38.97;100488.16;5032365;28;20123;-22
2021/04/01 09:06:24;;;;;;;16.55;10.23;;;;;;;14.39;37.45;100476.78;5049149;28;20037;-21
2021/04/01 09:09:09;;;;;;;16.30;8.75;;;;;;;14.84;36.33;100452.00;5015248;28;20081;-22
2021/04/01 09:12:02;;;;;;;12.15;8.73;;;;;;;13.88;38.58;100480.94;5049102;28;20101;-23
2021/04/01 09:14:30;;;;;;;14.90;7.85;;;;;;;14.29;40.64;100475.75;5048549;28;20045;-23
2021/04/01 09:17:16;;;;;;;115.88;42.80;;;;;;;13.93;39.96;100478.38;5049099;28;20040;-22
2021/04/01 09:19:43;;;;;;;11.77;8.15;;;;;;;14.21;39.39;100468.84;5049152;28;20104;-22
2021/04/01 09:22:26;;;;;;;13.40;8.30;;;;;;;14.65;39.60;100458.59;5030868;28;20151;-21
2021/04/01 09:25:03;;;;;;;14.02;8.90;;;;;;;14.46;38.74;100471.28;5031946;28;20052;-23
2021/04/01 09:27:28;;;;;;;13.82;8.45;;;;;;;14.59;38.17;100470.28;5048114;28;20032;-23
2021/04/01 09:30:11;;;;;;;15.68;9.80;;;;;;;15.32;35.12;100454.53;5048712;28;20029;-24
2021/04/01 09:32:37;;;;;;;14.27;8.88;;;;;;;15.65;36.27;100462.66;5031114;28;20106;-22
2021/04/01 09:35:03;;;;;;;13.77;8.00;;;;;;;15.94;33.96;100457.25;5048840;28;20040;-23
2021/04/01 09:37:29;;;;;;;13.38;8.15;;;;;;;15.95;33.94;100466.94;5048599;28;20021;-23
2021/04/01 09:39:55;;;;;;;13.07;8.68;;;;;;;16.36;33.35;100454.09;5030923;28;20033;-23
2021/04/01 09:42:20;;;;;;;42.42;23.95;;;;;;;15.66;35.52;100440.09;5048535;28;20020;-22
2021/04/01 09:44:53;;;;;;;26.92;14.93;;;;;;;15.84;37.00;100440.94;5048658;28;20512;-22
2021/04/01 09:47:35;;;;;;;13.40;7.80;;;;;;;16.33;34.38;100451.91;5048780;28;20445;-22
2021/04/01 09:50:08;;;;;;;14.20;9.00;;;;;;;17.02;34.79;100434.47;5030381;28;20122;-22
2021/04/01 09:52:34;;;;;;;12.15;8.40;;;;;;;16.68;33.93;100431.91;5048817;28;20098;-22
2021/04/01 09:55:40;;;;;;;10.60;7.45;;;;;;;16.65;34.10;100440.47;5048435;28;20037;-22
2021/04/01 09:58:24;;;;;;;14.90;9.00;;;;;;;17.21;31.95;100427.69;5025214;28;20135;-22
2021/04/01 10:03:55;;;;;;;10.35;8.00;;;;;;;17.40;32.52;100430.84;5048795;28;20052;-22
2021/04/01 10:06:34;;;;;;;11.73;7.53;;;;;;;16.46;35.23;100421.94;5048012;28;20036;-23
2021/04/01 10:09:19;;;;;;;11.13;7.70;;;;;;;16.04;36.14;100400.91;5048237;28;20083;-22
2021/04/01 10:11:48;;;;;;;11.35;8.30;;;;;;;16.43;34.66;100395.53;5047993;28;20029;-23
2021/04/01 10:14:14;;;;;;;15.68;8.23;;;;;;;16.69;35.72;100406.59;5047906;28;20492;-22
2021/04/01 10:17:03;;;;;;;11.65;7.95;;;;;;;16.45;33.62;100385.31;5047886;28;20029;-22
2021/04/01 10:19:33;;;;;;;12.77;7.70;;;;;;;16.91;32.26;100390.47;5030803;28;20412;-22
2021/04/01 10:21:58;;;;;;;13.93;8.20;;;;;;;17.27;31.96;100391.63;5048425;28;20789;-22
2021/04/01 10:24:31;;;;;;;11.90;7.40;;;;;;;17.34;32.31;100396.00;5029950;28;20040;-22
2021/04/01 10:27:16;;;;;;;11.55;7.90;;;;;;;17.26;33.04;100370.31;5047879;28;20473;-22
2021/04/01 10:32:11;;;;;;;20.00;12.50;;;;;;;17.47;32.51;100380.22;5047411;28;20044;-22
2021/04/01 10:34:53;;;;;;;11.23;7.95;;;;;;;17.87;31.25;100378.13;5047641;28;20063;-22
2021/04/01 10:37:22;;;;;;;13.57;7.32;;;;;;;18.53;29.71;100352.53;5029988;28;20029;-23
2021/04/01 10:39:48;;;;;;;11.85;7.72;;;;;;;18.11;32.52;100369.66;5047558;28;20032;-22
2021/04/01 10:42:14;;;;;;;19.63;11.35;;;;;;;17.55;31.57;100362.78;5047444;28;20032;-22
2021/04/01 10:44:40;;;;;;;11.20;8.02;;;;;;;18.51;29.12;100349.28;5047559;28;20024;-21
2021/04/01 10:47:07;;;;;;;11.00;7.72;;;;;;;19.71;26.58;100339.22;5047447;28;20060;-22
2021/04/01 10:49:36;;;;;;;16.58;10.38;;;;;;;19.83;27.86;100351.38;5047138;28;20045;-22
2021/04/01 10:52:08;;;;;;;16.33;9.60;;;;;;;20.38;26.80;100348.78;5047424;28;20025;-22
2021/04/01 10:54:40;;;;;;;22.98;13.68;;;;;;;20.19;27.17;100358.63;5047714;28;20029;-22
2021/04/01 10:57:07;;;;;;;14.63;9.13;;;;;;;19.52;28.34;100353.28;5047355;28;20027;-21
2021/04/01 10:59:35;;;;;;;51.85;25.92;;;;;;;19.74;29.53;100352.22;5047369;28;20037;-22
2021/04/01 11:02:02;;;;;;;12.10;8.48;;;;;;;19.32;31.38;100343.28;5047334;28;20731;-22
2021/04/01 11:04:29;;;;;;;13.45;9.05;;;;;;;19.64;29.37;100337.56;5047391;28;20761;-22
2021/04/01 11:06:55;;;;;;;14.73;8.82;;;;;;;20.62;27.46;100321.06;5047508;28;20033;-22
2021/04/01 11:09:21;;;;;;;12.23;8.48;;;;;;;21.13;26.53;100331.59;5012946;28;20031;-22
2021/04/01 11:14:22;;;;;;;11.60;7.30;;;;;;;21.38;25.08;100321.63;5047337;28;20033;-25
2021/04/01 11:16:47;;;;;;;30.15;17.90;;;;;;;22.13;24.64;100321.16;5013525;28;20021;-21
2021/04/01 11:19:13;;;;;;;637.78;387.00;;;;;;;22.77;23.48;100308.09;5047044;28;20043;-21
2021/04/01 11:21:38;;;;;;;15.25;8.18;;;;;;;21.61;23.43;100310.03;5012804;28;20025;-21
2021/04/01 11:24:04;;;;;;;11.07;8.13;;;;;;;20.55;25.27;100301.56;5029383;28;20108;-22
2021/04/01 11:26:30;;;;;;;12.35;7.82;;;;;;;21.08;26.76;100309.91;5029274;28;20757;-22
2021/04/01 11:28:56;;;;;;;15.50;12.13;;;;;;;21.28;26.54;100304.31;5029201;28;20482;-21
2021/04/01 11:31:23;;;;;;;12.80;7.88;;;;;;;20.21;24.88;100299.56;5029034;28;20029;-21
2021/04/01 11:33:48;;;;;;;11.88;8.20;;;;;;;20.65;24.54;100296.13;5046986;28;20041;-21
2021/04/01 11:36:16;;;;;;;12.63;7.13;;;;;;;20.87;24.34;100285.66;5012437;28;20033;-22
2021/04/01 11:38:45;;;;;;;11.60;7.43;;;;;;;21.60;23.96;100275.06;5013356;28;20039;-22
2021/04/01 11:41:21;;;;;;;14.32;8.75;;;;;;;21.41;25.32;100261.34;5046774;28;20086;-22
2021/04/01 11:43:51;;;;;;;13.07;9.00;;;;;;;21.16;23.63;100270.53;5046781;28;20029;-22
2021/04/01 11:46:18;;;;;;;12.85;7.85;;;;;;;21.66;24.00;100276.63;5046353;28;20028;-21
2021/04/01 11:48:45;;;;;;;10.73;7.40;;;;;;;22.39;23.00;100259.19;5046508;28;20509;-21
2021/04/01 11:51:34;;;;;;;21.08;13.80;;;;;;;23.43;22.39;100268.13;5049925;28;20027;-22
2021/04/01 11:54:03;;;;;;;11.50;7.85;;;;;;;23.89;22.83;100260.25;5050481;28;20493;-22
2021/04/01 11:56:38;;;;;;;10.40;7.38;;;;;;;21.74;23.85;100246.13;5050709;28;20817;-21
2021/04/01 11:59:19;;;;;;;9.98;7.78;;;;;;;21.46;23.48;100255.91;5051292;28;20037;-22
2021/04/01 12:01:52;;;;;;;18.95;11.23;;;;;;;22.51;21.92;100255.22;5050562;28;20017;-21
2021/04/01 12:04:19;;;;;;;10.60;6.30;;;;;;;23.14;21.91;100238.47;5050205;28;20408;-22
2021/04/01 12:06:44;;;;;;;11.27;7.32;;;;;;;22.95;20.70;100234.97;5032768;28;20115;-21
2021/04/01 12:09:10;;;;;;;9.68;6.63;;;;;;;23.36;21.08;100220.69;5016273;28;20079;-22
2021/04/01 12:11:39;;;;;;;13.65;7.53;;;;;;;23.66;21.38;100238.34;5050445;28;20530;-22
2021/04/01 12:14:07;;;;;;;13.38;7.47;;;;;;;23.80;21.41;100232.91;5050479;28;20037;-21
2021/04/01 12:16:32;;;;;;;11.75;6.80;;;;;;;23.79;20.62;100228.59;5050417;28;20433;-22
2021/04/01 12:18:58;;;;;;;11.15;7.78;;;;;;;24.26;20.59;100221.03;5050364;28;20036;-22
2021/04/01 12:21:23;;;;;;;12.30;7.72;;;;;;;23.16;22.98;100219.94;5050251;28;20025;-22
2021/04/01 12:23:53;;;;;;;9.52;7.13;;;;;;;23.72;22.38;100204.47;5032358;28;20029;-21
2021/04/01 12:26:19;;;;;;;10.55;6.63;;;;;;;23.05;22.21;100215.78;5049984;28;20177;-22
2021/04/01 12:29:03;;;;;;;11.45;7.43;;;;;;;22.86;22.97;100203.00;5050254;28;20519;-22
2021/04/01 12:31:41;;;;;;;9.18;6.65;;;;;;;22.79;22.52;100191.69;5032284;28;20032;-21
2021/04/01 12:34:10;;;;;;;10.77;6.80;;;;;;;21.78;24.37;100198.31;5049848;28;20064;-20
2021/04/01 12:36:40;;;;;;;32.60;8.30;;;;;;;21.28;24.82;100200.44;5050051;28;20025;-22
2021/04/01 12:39:07;;;;;;;10.93;6.80;;;;;;;22.67;23.28;100185.91;5049776;28;20037;-21
2021/04/01 12:41:34;;;;;;;10.07;6.68;;;;;;;23.46;22.42;100204.16;5049773;28;20099;-21
2021/04/01 12:44:00;;;;;;;13.65;6.72;;;;;;;22.74;23.21;100188.25;5049803;28;20064;-21
2021/04/01 12:46:38;;;;;;;9.90;7.15;;;;;;;22.33;24.03;100178.84;5049574;28;20052;-22
2021/04/01 12:49:03;;;;;;;;;;;;;;;23.46;24.37;100182.38;5049810;28;20048;-22
2021/04/01 12:51:28;;;;;;;28.17;12.68;;;;;;;22.83;23.43;100179.13;5049503;28;19999;-21
2021/04/01 12:53:58;;;;;;;11.05;7.53;;;;;;;24.06;22.82;100173.25;5049749;28;20392;-20
2021/04/01 12:56:26;;;;;;;16.40;8.77;;;;;;;23.93;22.46;100168.66;5049195;28;20108;-22
2021/04/01 12:59:04;;;;;;;9.73;7.05;;;;;;;24.26;20.45;100150.19;5032032;28;20024;-22
2021/04/01 13:03:57;;;;;;;11.43;7.68;;;;;;;24.53;20.29;100143.03;5049311;28;20036;-22
2021/04/01 13:06:33;;;;;;;27.60;12.30;;;;;;;24.42;21.01;100137.81;5049163;28;20058;-22
2021/04/01 13:11:24;;;;;;;9.20;7.30;;;;;;;24.34;20.57;100144.00;5049280;28;20025;-24
2021/04/01 13:13:51;;;;;;;9.90;6.78;;;;;;;24.31;21.60;100143.81;5049630;28;20041;-22